Time;durP1;ratioP1;P1;durP2;ratioP2;P2;SDS_P1;SDS_P2;PMS_P1;PMS_P2;Temp;Humidity;BMP_temperature;BMP_pressure;BME280_temperature;BME280_humidity;BME280_pressure;Samples;Min_cycle;Max_cycle;Signal;HPM_P1;HPM_P2
2022/09/24 00:00:28;;;;;;;29.40;19.40;;;;;;;11.59;100.00;101290.19;5030917;28;20544;-74
2022/09/24 00:02:53;;;;;;;28.20;19.65;;;;;;;11.57;100.00;101296.31;5032502;28;20025;-74
2022/09/24 00:05:18;;;;;;;30.58;20.42;;;;;;;11.55;100.00;101298.13;5028676;28;20029;-74
2022/09/24 00:07:46;;;;;;;29.52;19.48;;;;;;;11.55;100.00;101298.13;5031137;28;20095;-74
2022/09/24 00:10:13;;;;;;;28.08;19.83;;;;;;;11.53;100.00;101289.44;5032985;28;20029;-74
2022/09/24 00:12:38;;;;;;;30.30;20.60;;;;;;;11.56;100.00;101292.00;5032101;28;20056;-74
2022/09/24 00:15:04;;;;;;;31.02;20.42;;;;;;;11.58;100.00;101288.47;5032516;28;20473;-74
2022/09/24 00:17:30;;;;;;;31.48;19.52;;;;;;;11.58;100.00;101285.00;5031455;28;20044;-74
2022/09/24 00:19:55;;;;;;;31.25;20.40;;;;;;;11.60;100.00;101286.66;5032799;28;20021;-74
2022/09/24 00:22:21;;;;;;;30.70;21.33;;;;;;;11.61;100.00;101277.09;5030514;28;20032;-74
2022/09/24 00:27:29;;;;;;;29.20;19.13;;;;;;;11.60;100.00;101280.59;5031656;28;20393;-74
2022/09/24 00:29:55;;;;;;;29.13;20.13;;;;;;;11.60;100.00;101270.13;5032281;28;20045;-74
2022/09/24 00:32:22;;;;;;;27.63;19.45;;;;;;;11.59;100.00;101268.44;5030312;28;20057;-74
2022/09/24 00:34:51;;;;;;;28.42;19.08;;;;;;;11.62;100.00;101268.38;5032274;28;20029;-74
2022/09/24 00:37:18;;;;;;;25.95;18.77;;;;;;;11.59;100.00;101261.44;5031463;28;20021;-74
2022/09/24 00:39:44;;;;;;;29.55;18.90;;;;;;;11.60;100.00;101268.38;5028136;28;20029;-74
2022/09/24 00:42:10;;;;;;;30.25;19.10;;;;;;;11.61;100.00;101262.28;5031920;28;20052;-74
2022/09/24 00:44:45;;;;;;;27.55;19.33;;;;;;;11.64;100.00;101264.84;5031662;28;20025;-74
2022/09/24 00:47:33;;;;;;;26.88;18.73;;;;;;;11.61;100.00;101258.81;5032509;28;20028;-74
2022/09/24 00:50:16;;;;;;;25.33;17.65;;;;;;;11.64;100.00;101261.34;5031396;28;20033;-74
2022/09/24 00:52:50;;;;;;;25.83;18.08;;;;;;;11.64;100.00;101262.22;5031215;28;20414;-74
2022/09/24 00:55:18;;;;;;;26.88;17.48;;;;;;;11.63;100.00;101260.50;5032243;28;20030;-74
2022/09/24 00:57:45;;;;;;;26.73;17.67;;;;;;;11.63;100.00;101257.03;5030278;28;20021;-74
2022/09/24 01:00:11;;;;;;;24.95;17.48;;;;;;;11.64;100.00;101251.78;5030381;28;20025;-74
2022/09/24 01:02:41;;;;;;;25.55;18.02;;;;;;;11.62;100.00;101239.66;5031482;28;20036;-74
2022/09/24 01:05:07;;;;;;;26.77;18.65;;;;;;;11.60;100.00;101239.66;5031487;28;20465;-75
2022/09/24 01:07:34;;;;;;;25.65;18.23;;;;;;;11.61;100.00;101235.31;5031045;28;20025;-74
2022/09/24 01:09:59;;;;;;;25.48;17.80;;;;;;;11.60;100.00;101236.19;5031053;28;20104;-74
2022/09/24 01:12:49;;;;;;;24.20;17.30;;;;;;;11.51;100.00;101218.09;5030338;28;20155;-74
2022/09/24 01:15:23;;;;;;;28.23;18.10;;;;;;;11.59;100.00;101237.09;5020037;28;20026;-74
2022/09/24 01:18:13;;;;;;;25.83;16.67;;;;;;;11.53;100.00;101222.41;5031342;28;20025;-74
2022/09/24 01:21:09;;;;;;;25.00;16.88;;;;;;;11.57;100.00;101225.81;5031423;28;20057;-74
2022/09/24 01:23:43;;;;;;;27.67;17.02;;;;;;;11.53;100.00;101217.19;5031196;28;20033;-74
2022/09/24 01:26:38;;;;;;;28.83;16.70;;;;;;;11.52;100.00;101212.88;5030717;28;20017;-74
2022/09/24 01:29:27;;;;;;;24.10;16.40;;;;;;;11.54;100.00;101216.28;5030413;28;20079;-74
2022/09/24 01:32:01;;;;;;;25.48;17.25;;;;;;;11.54;100.00;101215.44;5028870;28;20025;-74
2022/09/24 01:34:31;;;;;;;25.23;16.15;;;;;;;11.54;100.00;101212.81;5028745;28;20040;-74
2022/09/24 01:36:58;;;;;;;23.60;16.23;;;;;;;11.51;100.00;101205.06;5031676;28;20036;-74
2022/09/24 01:39:26;;;;;;;23.48;16.33;;;;;;;11.53;100.00;101204.13;5029336;28;20026;-74
2022/09/24 01:41:52;;;;;;;21.70;15.65;;;;;;;11.55;100.00;101196.28;5031661;28;20025;-74
2022/09/24 01:44:18;;;;;;;25.45;16.67;;;;;;;11.49;100.00;101198.13;5029617;28;20292;-74
2022/09/24 01:46:43;;;;;;;22.30;16.38;;;;;;;11.50;100.00;101201.59;5030873;28;20461;-74
2022/09/24 01:49:09;;;;;;;26.45;15.82;;;;;;;11.45;100.00;101201.69;5030721;28;20100;-74
2022/09/24 01:51:42;;;;;;;23.90;16.75;;;;;;;11.44;100.00;101200.00;5030958;28;20017;-74
2022/09/24 01:54:17;;;;;;;24.90;16.30;;;;;;;11.46;100.00;101195.56;5029962;28;20025;-74
2022/09/24 01:57:00;;;;;;;23.05;16.15;;;;;;;11.45;100.00;101196.47;5030532;28;20112;-74
2022/09/24 01:59:35;;;;;;;26.20;16.92;;;;;;;11.42;100.00;101182.63;5030468;28;20072;-74
2022/09/24 02:02:29;;;;;;;24.85;17.52;;;;;;;11.42;100.00;101188.72;5031285;28;20473;-74
2022/09/24 02:05:43;;;;;;;25.95;16.83;;;;;;;11.47;100.00;101196.44;5028634;28;20052;-74
2022/09/24 02:08:15;;;;;;;26.55;17.48;;;;;;;11.46;100.00;101192.97;4985184;28;20053;-74
2022/09/24 02:10:56;;;;;;;24.53;18.17;;;;;;;11.48;100.00;101187.72;5031032;28;20026;-74
2022/09/24 02:13:27;;;;;;;30.58;17.42;;;;;;;11.48;100.00;101187.72;5030335;28;20810;-75
2022/09/24 02:15:58;;;;;;;27.85;18.25;;;;;;;11.46;100.00;101187.75;5031177;28;20037;-74
2022/09/24 02:18:31;;;;;;;28.15;18.52;;;;;;;11.46;100.00;101185.13;5033458;28;20027;-74
2022/09/24 02:20:58;;;;;;;;;;;;;;;11.50;100.00;101183.31;5035473;28;20103;-74
2022/09/24 02:23:27;;;;;;;26.42;17.70;;;;;;;11.48;100.00;101175.53;5034325;28;19967;-74
2022/09/24 02:25:57;;;;;;;30.13;18.95;;;;;;;11.52;100.00;101180.69;5033314;28;20029;-74
2022/09/24 02:28:24;;;;;;;28.45;19.15;;;;;;;11.47;100.00;101173.78;5033931;28;20021;-74
2022/09/24 02:30:57;;;;;;;28.42;19.80;;;;;;;11.53;100.00;101188.47;5033393;28;20116;-74
2022/09/24 02:36:11;;;;;;;29.55;19.63;;;;;;;11.46;100.00;101166.84;5023722;28;20080;-74
2022/09/24 02:38:36;;;;;;;29.98;19.60;;;;;;;11.49;100.00;101177.22;5033981;28;20013;-74
2022/09/24 02:41:02;;;;;;;31.30;20.98;;;;;;;11.49;100.00;101172.00;5034494;28;20032;-74
2022/09/24 02:43:27;;;;;;;32.00;21.30;;;;;;;11.46;100.00;101174.69;5033428;28;20079;-74
2022/09/24 02:45:53;;;;;;;32.38;20.35;;;;;;;11.47;100.00;101172.94;5034643;28;20351;-74
2022/09/24 02:48:18;;;;;;;32.38;21.70;;;;;;;11.44;100.00;101168.66;5033751;28;20040;-74
2022/09/24 02:50:44;;;;;;;34.08;21.70;;;;;;;11.44;100.00;101170.38;5034264;28;20527;-74
2022/09/24 02:53:10;;;;;;;31.23;21.95;;;;;;;11.46;100.00;101166.00;5033859;28;20048;-74
2022/09/24 02:55:35;;;;;;;39.78;22.25;;;;;;;11.46;100.00;101169.47;5033411;28;20030;-74
2022/09/24 02:58:00;;;;;;;35.30;23.35;;;;;;;11.46;100.00;101168.63;5032095;28;20462;-74
2022/09/24 03:00:26;;;;;;;37.10;24.15;;;;;;;11.46;100.00;101166.00;5033504;28;20037;-74
2022/09/24 03:02:51;;;;;;;40.60;25.52;;;;;;;11.44;100.00;101166.06;5034230;28;20025;-74
2022/09/24 03:05:17;;;;;;;40.45;26.70;;;;;;;11.48;100.00;101169.44;5034280;28;20075;-74
2022/09/24 03:07:43;;;;;;;44.10;27.48;;;;;;;11.48;100.00;101167.69;5032651;28;20520;-75
2022/09/24 03:10:09;;;;;;;46.08;28.13;;;;;;;11.47;100.00;101157.28;5033531;28;20057;-74
2022/09/24 03:12:34;;;;;;;48.30;29.48;;;;;;;11.48;100.00;101166.84;5033225;28;20116;-75
2022/09/24 03:14:59;;;;;;;49.83;29.58;;;;;;;11.43;100.00;101153.88;5033601;28;20033;-75
2022/09/24 03:17:26;;;;;;;59.08;32.92;;;;;;;11.44;100.00;101157.34;5032503;28;20032;-75
2022/09/24 03:19:52;;;;;;;52.22;30.73;;;;;;;11.48;100.00;101151.19;5030992;28;20033;-75
2022/09/24 03:22:17;;;;;;;54.30;32.17;;;;;;;11.48;100.00;101153.78;5034180;28;20033;-75
2022/09/24 03:24:42;;;;;;;55.35;33.10;;;;;;;11.47;100.00;101157.28;5033182;28;20025;-76
2022/09/24 03:27:07;;;;;;;56.08;33.20;;;;;;;11.45;100.00;101144.25;5032726;28;20091;-75
2022/09/24 03:32:16;;;;;;;57.80;34.38;;;;;;;11.49;100.00;101152.88;5032810;28;20043;-75
2022/09/24 03:34:41;;;;;;;61.60;34.85;;;;;;;11.48;100.00;101146.81;5033126;28;20108;-75
2022/09/24 03:37:07;;;;;;;61.83;35.25;;;;;;;11.52;100.00;101150.19;5033630;28;20434;-75
2022/09/24 03:39:32;;;;;;;64.28;36.25;;;;;;;11.53;100.00;101149.31;5031997;28;20057;-75
2022/09/24 03:41:58;;;;;;;60.00;36.13;;;;;;;11.48;100.00;101140.72;5031838;28;20049;-75
2022/09/24 03:44:23;;;;;;;60.03;37.20;;;;;;;11.48;100.00;101140.72;5033119;28;20103;-75
2022/09/24 03:46:48;;;;;;;67.05;37.17;;;;;;;11.47;100.00;101137.22;5033010;28;20029;-76
2022/09/24 03:49:14;;;;;;;66.38;37.28;;;;;;;11.48;100.00;101136.38;5032056;28;20041;-75
2022/09/24 03:51:39;;;;;;;59.15;35.15;;;;;;;11.52;100.00;101137.16;5032188;28;20072;-76
2022/09/24 03:54:05;;;;;;;65.57;36.72;;;;;;;11.49;100.00;101132.84;5032465;28;20473;-76
2022/09/24 03:56:30;;;;;;;60.25;35.40;;;;;;;11.48;100.00;101125.91;5032805;28;20032;-76
2022/09/24 03:58:55;;;;;;;62.33;35.88;;;;;;;11.48;100.00;101131.16;5031584;28;20041;-76
2022/09/24 04:01:20;;;;;;;61.95;35.20;;;;;;;11.42;100.00;101122.59;5031535;28;20031;-76
2022/09/24 04:03:47;;;;;;;59.25;34.67;;;;;;;11.45;100.00;101123.38;5033540;28;20029;-76
2022/09/24 04:06:12;;;;;;;61.15;34.55;;;;;;;11.43;100.00;101117.31;5031463;28;20053;-76
2022/09/24 04:08:37;;;;;;;61.47;34.58;;;;;;;11.43;100.00;101121.69;5031952;28;20068;-76
2022/09/24 04:11:03;;;;;;;62.38;34.45;;;;;;;11.47;100.00;101121.56;5033072;28;20032;-76
2022/09/24 04:13:28;;;;;;;64.00;35.20;;;;;;;11.45;100.00;101120.75;5032220;28;20368;-76
2022/09/24 04:15:54;;;;;;;63.65;35.10;;;;;;;11.48;100.00;101114.63;5032399;28;20064;-76
2022/09/24 04:18:19;;;;;;;62.95;34.50;;;;;;;11.43;100.00;101106.03;5032132;28;20398;-76
2022/09/24 04:20:45;;;;;;;58.65;34.00;;;;;;;11.46;100.00;101114.63;5031647;28;20029;-76
2022/09/24 04:23:11;;;;;;;55.25;32.33;;;;;;;11.44;100.00;101107.72;5032705;28;20025;-76
2022/09/24 04:25:39;;;;;;;60.88;33.63;;;;;;;11.44;100.00;101111.22;5031623;28;20898;-75
2022/09/24 04:28:06;;;;;;;62.55;33.45;;;;;;;11.45;100.00;101110.31;5030500;28;20034;-75
2022/09/24 04:30:33;;;;;;;60.63;33.45;;;;;;;11.47;100.00;101115.50;5031519;28;20021;-75
2022/09/24 04:32:59;;;;;;;61.58;33.88;;;;;;;11.43;100.00;101108.63;5032791;28;20029;-75
2022/09/24 04:35:26;;;;;;;60.25;32.83;;;;;;;11.47;100.00;101111.13;5031417;28;20021;-76
2022/09/24 04:37:52;;;;;;;62.13;32.60;;;;;;;11.43;100.00;101114.72;5032436;28;20025;-75
2022/09/24 04:40:17;;;;;;;58.95;33.90;;;;;;;11.48;100.00;101117.22;5029989;28;20460;-75
2022/09/24 04:42:45;;;;;;;61.88;32.65;;;;;;;11.49;100.00;101118.94;5032028;28;20025;-76
2022/09/24 04:45:11;;;;;;;56.13;31.75;;;;;;;11.48;100.00;101105.03;5032093;28;20458;-76
2022/09/24 04:47:39;;;;;;;57.90;32.50;;;;;;;11.49;100.00;101109.34;5030727;28;20032;-76
2022/09/24 04:50:06;;;;;;;58.83;32.08;;;;;;;11.52;100.00;101118.03;5031401;28;20083;-75
2022/09/24 04:52:32;;;;;;;59.05;33.25;;;;;;;11.51;100.00;101124.13;5031132;28;20056;-75
2022/09/24 04:54:58;;;;;;;56.72;32.83;;;;;;;11.51;100.00;101114.56;5032118;28;20029;-76
2022/09/24 04:57:25;;;;;;;61.00;32.78;;;;;;;11.52;100.00;101115.41;5031535;28;20022;-75
2022/09/24 04:59:50;;;;;;;58.15;32.55;;;;;;;11.47;100.00;101102.44;5031120;28;20678;-76
2022/09/24 05:02:16;;;;;;;59.28;32.58;;;;;;;11.49;100.00;101111.97;5031258;28;20547;-76
2022/09/24 05:04:42;;;;;;;56.00;32.03;;;;;;;11.52;100.00;101110.19;5031498;28;20089;-75
2022/09/24 05:07:08;;;;;;;56.17;31.70;;;;;;;11.52;100.00;101115.41;5032261;28;20021;-76
2022/09/24 05:09:34;;;;;;;52.20;30.17;;;;;;;11.51;100.00;101113.66;5029612;28;20096;-75
2022/09/24 05:12:00;;;;;;;53.17;30.17;;;;;;;11.52;100.00;101115.41;5032043;28;20025;-76
2022/09/24 05:14:25;;;;;;;52.47;30.02;;;;;;;11.51;100.00;101113.66;5030200;28;20465;-76
2022/09/24 05:16:51;;;;;;;50.88;29.40;;;;;;;11.51;100.00;101111.06;5031715;28;20025;-76
2022/09/24 05:19:16;;;;;;;48.88;28.55;;;;;;;11.51;100.00;101124.13;5031721;28;20465;-76
2022/09/24 05:21:41;;;;;;;48.22;27.85;;;;;;;11.49;100.00;101119.78;5031267;28;20358;-77
2022/09/24 05:24:07;;;;;;;52.50;27.98;;;;;;;11.48;100.00;101128.53;5031083;28;20041;-77
2022/09/24 05:29:16;;;;;;;44.72;25.67;;;;;;;11.46;100.00;101119.88;5032027;28;20028;-77
2022/09/24 05:31:42;;;;;;;48.38;26.55;;;;;;;11.51;100.00;101122.38;5030672;28;20030;-77
2022/09/24 05:34:07;;;;;;;44.67;25.92;;;;;;;11.49;100.00;101121.56;5029638;28;20033;-77
2022/09/24 05:36:32;;;;;;;48.42;27.30;;;;;;;11.49;100.00;101121.56;5030408;28;20041;-76
2022/09/24 05:38:58;;;;;;;45.63;25.80;;;;;;;11.44;100.00;101110.34;5031655;28;20051;-76
2022/09/24 05:41:23;;;;;;;47.30;26.58;;;;;;;11.48;100.00;101119.84;5030606;28;20021;-76
2022/09/24 05:43:48;;;;;;;45.80;25.83;;;;;;;11.48;100.00;101123.31;5030272;28;20033;-76
2022/09/24 05:46:14;;;;;;;46.70;25.75;;;;;;;11.46;100.00;101117.25;5030751;28;20438;-76
2022/09/24 05:48:39;;;;;;;42.80;24.63;;;;;;;11.46;100.00;101119.00;5031007;28;20025;-76
2022/09/24 05:51:05;;;;;;;44.65;24.60;;;;;;;11.45;100.00;101130.34;5031539;28;20034;-77
2022/09/24 05:53:31;;;;;;;47.03;24.80;;;;;;;11.45;100.00;101130.34;5033407;28;20081;-76
2022/09/24 05:55:57;;;;;;;43.72;25.02;;;;;;;11.47;100.00;101134.63;5034585;28;20068;-76
2022/09/24 05:58:23;;;;;;;43.65;25.45;;;;;;;11.45;100.00;101131.22;5034085;28;20033;-77
2022/09/24 06:00:49;;;;;;;48.72;26.77;;;;;;;11.42;100.00;101120.84;5034582;28;20021;-77
2022/09/24 06:03:16;;;;;;;45.30;25.83;;;;;;;11.43;100.00;101138.19;5035584;28;20040;-76
2022/09/24 06:05:46;;;;;;;47.78;26.08;;;;;;;11.45;100.00;101136.44;5033049;28;20144;-77
2022/09/24 06:08:11;;;;;;;44.63;26.00;;;;;;;11.45;100.00;101141.66;5035422;28;20362;-76
2022/09/24 06:10:37;;;;;;;48.95;26.60;;;;;;;11.44;100.00;101141.66;5033788;28;20126;-76
2022/09/24 06:13:02;;;;;;;44.10;26.55;;;;;;;11.47;100.00;101145.06;5032938;28;20044;-76
2022/09/24 06:15:28;;;;;;;48.63;25.70;;;;;;;11.49;100.00;101138.06;5030835;28;20029;-78
2022/09/24 06:17:53;;;;;;;50.00;26.08;;;;;;;11.52;100.00;101144.97;5034567;28;20377;-78
2022/09/24 06:20:19;;;;;;;50.00;26.40;;;;;;;11.55;100.00;101142.31;5034602;28;20033;-78
2022/09/24 06:22:44;;;;;;;48.33;26.50;;;;;;;11.55;100.00;101146.66;5032936;28;20123;-78
2022/09/24 06:25:09;;;;;;;54.40;26.75;;;;;;;11.51;100.00;101143.28;5034470;28;20026;-78
2022/09/24 06:27:35;;;;;;;43.40;25.13;;;;;;;11.55;100.00;101146.66;5034116;28;20144;-78
2022/09/24 06:30:00;;;;;;;48.50;25.52;;;;;;;11.56;100.00;101143.16;5033244;28;20385;-78
2022/09/24 06:32:25;;;;;;;48.50;25.00;;;;;;;11.55;100.00;101137.09;5034546;28;20036;-77
2022/09/24 06:34:51;;;;;;;50.78;26.80;;;;;;;11.59;100.00;101146.56;5033864;28;20500;-77
2022/09/24 06:37:16;;;;;;;47.88;26.88;;;;;;;11.60;100.00;101144.78;5033878;28;20026;-77
2022/09/24 06:39:41;;;;;;;48.65;26.48;;;;;;;11.61;100.00;101149.16;5033863;28;20104;-77
2022/09/24 06:42:07;;;;;;;46.25;25.98;;;;;;;11.57;100.00;101145.72;5034231;28;20112;-77
2022/09/24 06:44:34;;;;;;;47.42;26.00;;;;;;;11.56;100.00;101153.59;5032913;28;20026;-77
2022/09/24 06:47:00;;;;;;;47.30;26.45;;;;;;;11.58;100.00;101159.66;5034970;28;20079;-77
2022/09/24 06:49:26;;;;;;;47.17;25.38;;;;;;;11.56;100.00;101156.22;5033459;28;20022;-77
2022/09/24 06:51:53;;;;;;;51.22;26.45;;;;;;;11.61;100.00;101163.06;5034450;28;20107;-77
2022/09/24 06:54:19;;;;;;;54.97;27.45;;;;;;;11.61;100.00;101162.22;5033072;28;20029;-77
2022/09/24 06:56:44;;;;;;;48.60;26.55;;;;;;;11.67;100.00;101162.03;5033270;28;20024;-78
2022/09/24 06:59:10;;;;;;;53.97;27.80;;;;;;;11.68;100.00;101158.56;5029779;28;20021;-77
2022/09/24 07:01:35;;;;;;;54.08;28.83;;;;;;;11.68;100.00;101158.56;5033077;28;20170;-78
2022/09/24 07:04:01;;;;;;;57.60;28.73;;;;;;;11.68;100.00;101155.94;5033542;28;20060;-77
2022/09/24 07:07:28;;;;;;;53.15;28.65;;;;;;;11.70;100.00;101154.13;5033748;28;20442;-77
2022/09/24 07:09:11;;;;;;;55.30;28.52;;;;;;;11.76;100.00;101167.06;5032811;28;20043;-77
2022/09/24 07:11:36;;;;;;;56.97;28.77;;;;;;;11.73;100.00;101161.91;5032144;28;20138;-77
2022/09/24 07:14:05;;;;;;;55.13;28.02;;;;;;;11.78;100.00;101170.50;5034253;28;20029;-77
2022/09/24 07:16:30;;;;;;;49.60;28.58;;;;;;;11.80;100.00;101168.69;5031299;28;20438;-77
2022/09/24 07:18:56;;;;;;;58.25;28.63;;;;;;;11.83;100.00;101167.78;5031770;28;20509;-77
2022/09/24 07:21:21;;;;;;;53.58;28.25;;;;;;;11.78;100.00;101160.06;5033586;28;20025;-78
2022/09/24 07:23:47;;;;;;;54.33;28.50;;;;;;;11.80;100.00;101165.22;5033724;28;20108;-78
2022/09/24 07:26:12;;;;;;;58.40;28.65;;;;;;;11.79;100.00;101166.13;5029224;28;20504;-78
2022/09/24 07:28:37;;;;;;;52.38;29.23;;;;;;;11.81;100.00;101165.22;5033686;28;20389;-78
2022/09/24 07:31:03;;;;;;;52.88;30.40;;;;;;;11.82;100.00;101166.91;5030264;28;20049;-78
2022/09/24 07:33:30;;;;;;;59.13;31.15;;;;;;;11.85;100.00;101179.94;5030640;28;20029;-79
2022/09/24 07:35:56;;;;;;;58.67;31.30;;;;;;;11.86;100.00;101179.03;5022799;28;20385;-79
2022/09/24 07:38:21;;;;;;;61.78;31.67;;;;;;;11.88;100.00;101173.78;5031748;28;20036;-80
2022/09/24 07:40:47;;;;;;;60.17;32.30;;;;;;;11.83;100.00;101176.47;5033493;28;20075;-79
2022/09/24 07:43:13;;;;;;;65.53;32.00;;;;;;;11.82;100.00;101179.97;5031913;28;20496;-80
2022/09/24 07:45:39;;;;;;;61.53;32.53;;;;;;;11.85;100.00;101182.56;5030224;28;20496;-78
2022/09/24 07:48:05;;;;;;;57.67;32.22;;;;;;;11.87;100.00;101183.38;5033169;28;20040;-79
2022/09/24 07:50:37;;;;;;;62.85;32.13;;;;;;;11.90;100.00;101188.53;5033146;28;20025;-79
2022/09/24 07:53:03;;;;;;;62.83;32.58;;;;;;;11.93;100.00;101185.88;5031932;28;20051;-79
2022/09/24 07:55:28;;;;;;;65.38;32.97;;;;;;;11.93;100.00;101184.97;5023850;28;20041;-79
2022/09/24 07:57:54;;;;;;;64.45;33.45;;;;;;;11.93;100.00;101195.44;5030705;28;20109;-80
2022/09/24 08:00:21;;;;;;;66.43;34.55;;;;;;;11.91;100.00;101187.63;5029839;28;20037;-78
2022/09/24 08:02:47;;;;;;;66.53;33.40;;;;;;;11.95;100.00;101189.28;5033683;28;20051;-80
2022/09/24 08:05:16;;;;;;;57.30;32.70;;;;;;;11.94;100.00;101192.78;5028633;28;20037;-79
2022/09/24 08:07:49;;;;;;;65.70;34.55;;;;;;;11.94;100.00;101190.19;5031047;28;20026;-79
2022/09/24 08:10:14;;;;;;;62.03;33.55;;;;;;;12.04;100.00;101208.25;5032526;28;20029;-78
2022/09/24 08:12:40;;;;;;;63.78;35.33;;;;;;;12.05;100.00;101194.28;5032022;28;20037;-82
2022/09/24 08:15:06;;;;;;;57.25;33.33;;;;;;;12.01;100.00;101198.72;5030822;28;20029;-78
2022/09/24 08:17:31;;;;;;;58.75;34.17;;;;;;;12.04;100.00;101197.81;5032680;28;20033;-78
2022/09/24 08:19:57;;;;;;;60.55;34.70;;;;;;;12.07;100.00;101203.81;5028130;28;20393;-77
2022/09/24 08:22:23;;;;;;;61.33;33.30;;;;;;;12.08;100.00;101213.38;5031128;28;20109;-77
2022/09/24 08:24:49;;;;;;;60.63;33.60;;;;;;;12.07;100.00;101210.81;5032062;28;20465;-78
2022/09/24 08:27:15;;;;;;;62.08;34.00;;;;;;;12.05;100.00;101200.38;5031684;28;20029;-78
2022/09/24 08:29:40;;;;;;;61.00;34.30;;;;;;;12.11;100.00;101212.44;5029765;28;20032;-78
2022/09/24 08:32:06;;;;;;;64.07;35.05;;;;;;;12.15;100.00;101214.06;5032533;28;20034;-78
2022/09/24 08:34:37;;;;;;;64.30;34.25;;;;;;;12.19;100.00;101215.72;5028769;28;20022;-77
2022/09/24 08:37:03;;;;;;;68.53;35.92;;;;;;;12.22;100.00;101215.66;5031847;28;20026;-77
2022/09/24 08:39:28;;;;;;;66.25;35.13;;;;;;;12.20;100.00;101204.38;5029806;28;20041;-77
2022/09/24 08:41:59;;;;;;;61.97;33.83;;;;;;;12.24;100.00;101223.47;5020897;28;20038;-79
2022/09/24 08:47:42;;;;;;;60.03;32.75;;;;;;;12.38;100.00;101219.59;5031006;28;20052;-77
2022/09/24 08:50:20;;;;;;;64.15;34.20;;;;;;;12.39;100.00;101223.94;5029240;28;20037;-75
2022/09/24 08:53:05;;;;;;;63.47;33.50;;;;;;;12.38;100.00;101227.44;5032104;28;20037;-76
2022/09/24 08:55:36;;;;;;;57.70;33.25;;;;;;;12.42;100.00;101228.22;5031483;28;20030;-76
2022/09/24 08:58:10;;;;;;;58.08;32.45;;;;;;;12.40;100.00;101235.25;5032144;28;20025;-75
2022/09/24 09:00:44;;;;;;;55.80;33.08;;;;;;;12.43;100.00;101236.94;5030813;28;20052;-76
2022/09/24 09:03:29;;;;;;;59.58;33.60;;;;;;;12.45;100.00;101233.38;5030799;28;20032;-75
2022/09/24 09:06:02;;;;;;;55.17;32.15;;;;;;;12.40;100.00;101236.13;5028837;28;20076;-75
2022/09/24 09:08:38;;;;;;;56.45;33.22;;;;;;;12.36;100.00;101239.72;5030529;28;20139;-75
2022/09/24 09:11:09;;;;;;;57.22;31.98;;;;;;;12.34;100.00;101238.03;5030315;28;20033;-77
2022/09/24 09:13:41;;;;;;;58.80;32.85;;;;;;;12.34;100.00;101233.66;5031767;28;20057;-76
2022/09/24 09:16:25;;;;;;;58.67;32.95;;;;;;;12.35;100.00;101237.97;5031685;28;20021;-77
2022/09/24 09:18:54;;;;;;;63.47;34.67;;;;;;;12.40;100.00;101232.66;5030173;28;20013;-76
2022/09/24 09:21:36;;;;;;;54.60;32.45;;;;;;;12.41;100.00;101239.59;5030860;28;20029;-76
2022/09/24 09:24:03;;;;;;;62.97;34.50;;;;;;;12.48;100.00;101237.69;5031563;28;20032;-78
2022/09/24 09:26:30;;;;;;;61.88;33.80;;;;;;;12.51;100.00;101246.31;5031074;28;20115;-79
2022/09/24 09:29:01;;;;;;;57.72;33.38;;;;;;;12.49;100.00;101247.22;5027533;28;20022;-80
2022/09/24 09:31:55;;;;;;;59.88;33.92;;;;;;;12.41;100.00;101232.59;5030552;28;20062;-78
2022/09/24 09:34:28;;;;;;;55.60;32.25;;;;;;;12.55;100.00;101247.09;5016013;28;20041;-78
2022/09/24 09:37:20;;;;;;;60.55;33.40;;;;;;;12.63;100.00;101237.31;5027915;28;20040;-77
2022/09/24 09:40:17;;;;;;;58.65;32.90;;;;;;;12.68;100.00;101245.88;5020759;28;20042;-77
2022/09/24 09:42:44;;;;;;;64.47;32.80;;;;;;;12.69;100.00;101231.91;5022142;28;20409;-77
2022/09/24 09:45:43;;;;;;;63.03;33.80;;;;;;;12.74;100.00;101240.47;5031183;28;20053;-77
2022/09/24 09:48:12;;;;;;;51.85;31.48;;;;;;;12.73;100.00;101237.91;5020355;28;20136;-76
2022/09/24 09:50:46;;;;;;;53.75;31.23;;;;;;;12.79;100.00;101233.38;5030729;28;20056;-76
2022/09/24 09:53:30;;;;;;;56.05;31.92;;;;;;;12.85;100.00;101240.19;5031431;28;20053;-76
2022/09/24 09:55:56;;;;;;;;;;;;;;;12.89;100.00;101232.25;5032366;28;20094;-76
2022/09/24 09:58:30;;;;;;;56.40;32.10;;;;;;;12.93;100.00;101240.00;5027576;28;19913;-76
2022/09/24 10:01:30;;;;;;;55.88;31.40;;;;;;;12.99;100.00;101237.22;5027541;28;20034;-76
2022/09/24 10:03:57;;;;;;;51.65;30.33;;;;;;;12.95;100.00;101240.81;5021525;28;20030;-76
2022/09/24 10:06:28;;;;;;;49.75;28.88;;;;;;;12.95;100.00;101243.44;5025388;28;20075;-76
2022/09/24 10:09:06;;;;;;;49.95;29.05;;;;;;;12.93;100.00;101237.41;5026189;28;20026;-76
2022/09/24 10:11:31;;;;;;;44.97;27.60;;;;;;;12.86;100.00;101236.69;5028618;28;20022;-76
2022/09/24 10:14:04;;;;;;;45.25;28.40;;;;;;;12.92;100.00;101241.78;5031205;28;20045;-76
2022/09/24 10:16:36;;;;;;;46.20;28.75;;;;;;;12.88;100.00;101229.66;5030002;28;20373;-75
2022/09/24 10:19:02;;;;;;;47.05;29.60;;;;;;;13.04;100.00;101238.81;5031278;28;20025;-76
2022/09/24 10:21:34;;;;;;;51.15;29.75;;;;;;;13.03;100.00;101242.31;5030686;28;20080;-75
2022/09/24 10:24:07;;;;;;;46.87;28.70;;;;;;;13.07;100.00;101243.09;5031357;28;20037;-75
2022/09/24 10:26:36;;;;;;;48.83;29.58;;;;;;;13.13;100.00;101235.09;5030320;28;20032;-75
2022/09/24 10:31:47;;;;;;;50.95;31.92;;;;;;;13.28;100.00;101232.06;5031557;28;20045;-75
2022/09/24 10:34:21;;;;;;;52.90;31.27;;;;;;;13.44;100.00;101232.50;5029905;28;20026;-75
2022/09/24 10:36:59;;;;;;;49.22;31.33;;;;;;;13.45;100.00;101223.72;5030655;28;20095;-76
2022/09/24 10:39:25;;;;;;;50.05;31.23;;;;;;;13.53;100.00;101229.59;5033541;28;20030;-76
2022/09/24 10:41:55;;;;;;;47.10;31.17;;;;;;;13.55;100.00;101233.03;5033420;28;20116;-76
2022/09/24 10:44:22;;;;;;;51.58;31.05;;;;;;;13.67;100.00;101234.44;5033551;28;20108;-76
2022/09/24 10:47:06;;;;;;;48.35;30.27;;;;;;;13.75;100.00;101237.66;5030547;28;20033;-76
2022/09/24 10:49:56;;;;;;;47.30;30.80;;;;;;;13.84;100.00;101241.78;5026118;28;20029;-76
2022/09/24 10:52:51;;;;;;;38.53;27.88;;;;;;;13.83;100.00;101245.28;5032884;28;20109;-75
2022/09/24 10:55:38;;;;;;;40.33;26.80;;;;;;;13.86;100.00;101252.19;5030383;28;20028;-76
2022/09/24 10:58:24;;;;;;;43.08;28.95;;;;;;;13.98;100.00;101243.97;5028456;28;20477;-76
2022/09/24 11:01:06;;;;;;;40.55;27.73;;;;;;;14.07;100.00;101242.84;5029261;28;20035;-76
2022/09/24 11:03:43;;;;;;;40.85;26.52;;;;;;;14.05;100.00;101248.09;5026498;28;20138;-76
2022/09/24 11:06:17;;;;;;;38.78;25.02;;;;;;;14.01;100.00;101249.13;5029040;28;20485;-75
2022/09/24 11:08:56;;;;;;;38.70;25.95;;;;;;;14.08;100.00;101255.03;5027509;28;20026;-76
2022/09/24 11:11:40;;;;;;;42.45;25.77;;;;;;;14.20;100.00;101250.25;5028896;28;20079;-76
2022/09/24 11:14:18;;;;;;;;;;;;;;;14.29;100.00;101255.22;5027682;28;20165;-75
2022/09/24 11:17:06;;;;;;;35.58;25.08;;;;;;;14.26;100.00;101250.06;5027351;28;20012;-76
2022/09/24 11:20:02;;;;;;;41.10;25.15;;;;;;;14.35;100.00;101250.66;5028399;28;20125;-76
2022/09/24 11:22:46;;;;;;;38.65;25.30;;;;;;;14.48;100.00;101255.44;5030797;28;20037;-76
2022/09/24 11:25:11;;;;;;;;;;;;;;;14.54;100.00;101254.41;5032502;28;20068;-76
2022/09/24 11:27:42;;;;;;;36.87;23.80;;;;;;;14.54;100.00;101259.66;5033491;28;19976;-76
2022/09/24 11:30:09;;;;;;;28.00;21.88;;;;;;;14.48;100.00;101255.44;5031098;28;20268;-76